Time;durP1;ratioP1;P1;durP2;ratioP2;P2;SDS_P1;SDS_P2;PMS_P1;PMS_P2;Temp;Humidity;BMP_temperature;BMP_pressure;BME280_temperature;BME280_humidity;BME280_pressure;Samples;Min_cycle;Max_cycle;Signal;HPM_P1;HPM_P2
2021/01/26 00:00:36;;;;;;;18.90;15.20;;;;;;;;;;4968194;28;20185;-55
2021/01/26 00:03:01;;;;;;;19.80;17.73;;;;;;;;;;4960822;28;24430;-55
2021/01/26 00:05:27;;;;;;;20.83;15.90;;;;;;;;;;4967098;28;20655;-54
2021/01/26 00:07:52;;;;;;;19.10;17.20;;;;;;;;;;4966688;28;24409;-54
2021/01/26 00:10:17;;;;;;;21.00;16.58;;;;;;;;;;4956777;28;20190;-54
2021/01/26 00:12:42;;;;;;;19.63;16.50;;;;;;;;;;4959968;28;20549;-54
2021/01/26 00:15:08;;;;;;;18.30;15.50;;;;;;;;;;4971494;28;20217;-54
2021/01/26 00:17:33;;;;;;;17.53;14.50;;;;;;;;;;4964646;28;20547;-54
2021/01/26 00:19:58;;;;;;;17.77;14.90;;;;;;;;;;4972322;28;20179;-54
2021/01/26 00:22:23;;;;;;;22.00;15.13;;;;;;;;;;4971378;28;20181;-54
2021/01/26 00:24:48;;;;;;;17.38;15.35;;;;;;;;;;4956504;28;20321;-54
2021/01/26 00:27:13;;;;;;;16.83;14.43;;;;;;;;;;4971180;28;20187;-54
2021/01/26 00:29:39;;;;;;;17.37;14.70;;;;;;;;;;4959814;28;20167;-54
2021/01/26 00:32:04;;;;;;;18.70;14.93;;;;;;;;;;4963707;28;20164;-54
2021/01/26 00:34:29;;;;;;;16.67;14.73;;;;;;;;;;4956355;28;20189;-54
2021/01/26 00:36:54;;;;;;;16.10;14.25;;;;;;;;;;4963471;28;20176;-54
2021/01/26 00:39:20;;;;;;;18.17;14.70;;;;;;;;;;4971403;28;20182;-54
2021/01/26 00:41:45;;;;;;;17.70;15.10;;;;;;;;;;4956674;28;20719;-54
2021/01/26 00:44:10;;;;;;;16.73;14.32;;;;;;;;;;4956555;28;20202;-54
2021/01/26 00:46:35;;;;;;;19.27;14.85;;;;;;;;;;4970961;28;20194;-54
2021/01/26 00:49:00;;;;;;;16.23;14.40;;;;;;;;;;4965130;28;20188;-54
2021/01/26 00:51:25;;;;;;;18.13;15.80;;;;;;;;;;4970308;28;20189;-54
2021/01/26 00:53:51;;;;;;;15.55;13.63;;;;;;;;;;4964116;28;20197;-54
2021/01/26 00:56:16;;;;;;;20.08;15.35;;;;;;;;;;4969099;28;20196;-54
2021/01/26 00:58:41;;;;;;;18.65;15.00;;;;;;;;;;4970600;28;20191;-54
2021/01/26 01:01:06;;;;;;;19.50;14.77;;;;;;;;;;4965598;28;20244;-54
2021/01/26 01:03:31;;;;;;;17.13;14.20;;;;;;;;;;4961907;28;20209;-54
2021/01/26 01:05:57;;;;;;;16.37;13.70;;;;;;;;;;4957501;28;20175;-54
2021/01/26 01:08:22;;;;;;;19.63;13.70;;;;;;;;;;4952039;28;20185;-54
2021/01/26 01:10:49;;;;;;;17.40;14.00;;;;;;;;;;4967821;28;21187;-54
2021/01/26 01:13:14;;;;;;;16.00;13.60;;;;;;;;;;4966489;28;20192;-54
2021/01/26 01:15:39;;;;;;;16.52;13.02;;;;;;;;;;4966934;28;20650;-54
2021/01/26 01:18:05;;;;;;;19.65;15.18;;;;;;;;;;4952111;28;20196;-54
2021/01/26 01:20:30;;;;;;;18.77;15.50;;;;;;;;;;4969414;28;20187;-54
2021/01/26 01:22:56;;;;;;;18.80;14.80;;;;;;;;;;4959768;28;20609;-54
2021/01/26 01:25:21;;;;;;;17.07;14.10;;;;;;;;;;4957033;28;20549;-54
2021/01/26 01:27:46;;;;;;;15.67;13.67;;;;;;;;;;4966733;28;20214;-53
2021/01/26 01:30:14;;;;;;;17.73;14.33;;;;;;;;;;4968066;28;20265;-55
2021/01/26 01:32:39;;;;;;;17.00;13.03;;;;;;;;;;4969605;28;20171;-54
2021/01/26 01:35:04;;;;;;;19.75;14.82;;;;;;;;;;4959248;28;20604;-54
2021/01/26 01:37:30;;;;;;;15.80;13.97;;;;;;;;;;4959380;28;20271;-54
2021/01/26 01:39:55;;;;;;;14.45;12.75;;;;;;;;;;4968137;28;20191;-54
2021/01/26 01:42:20;;;;;;;16.42;13.90;;;;;;;;;;4963248;28;20175;-54
2021/01/26 01:44:45;;;;;;;14.68;12.88;;;;;;;;;;4959637;28;20230;-54
2021/01/26 01:47:23;;;;;;;15.45;12.88;;;;;;;;;;4962443;28;20878;-54
2021/01/26 01:49:49;;;;;;;15.27;13.40;;;;;;;;;;4968100;28;20180;-54
2021/01/26 01:52:16;;;;;;;16.63;13.37;;;;;;;;;;4962183;28;20693;-54
2021/01/26 01:54:45;;;;;;;14.70;11.90;;;;;;;;;;4964323;28;20377;-54
2021/01/26 01:57:21;;;;;;;16.43;14.50;;;;;;;;;;4957491;28;21236;-54
2021/01/26 01:59:48;;;;;;;14.17;12.43;;;;;;;;;;4958539;28;20936;-54
2021/01/26 02:02:13;;;;;;;15.73;13.90;;;;;;;;;;4968596;28;20599;-54
2021/01/26 02:04:39;;;;;;;13.47;12.17;;;;;;;;;;4962393;28;20703;-54
2021/01/26 02:07:04;;;;;;;14.37;12.87;;;;;;;;;;4959117;28;20512;-54
2021/01/26 02:09:31;;;;;;;15.43;11.37;;;;;;;;;;4963133;28;20176;-55
2021/01/26 02:11:57;;;;;;;13.00;11.67;;;;;;;;;;4957493;28;20684;-55
2021/01/26 02:14:27;;;;;;;12.87;11.57;;;;;;;;;;4959979;28;20662;-54
2021/01/26 02:16:52;;;;;;;12.77;11.47;;;;;;;;;;4968242;28;20245;-54
2021/01/26 02:19:35;;;;;;;14.63;12.75;;;;;;;;;;4964945;28;20604;-52
2021/01/26 02:22:10;;;;;;;14.43;12.93;;;;;;;;;;4958023;28;20226;-52
2021/01/26 02:24:54;;;;;;;15.13;12.17;;;;;;;;;;4964493;28;20653;-52
2021/01/26 02:27:40;;;;;;;14.07;11.47;;;;;;;;;;4965208;28;20603;-53
2021/01/26 02:30:11;;;;;;;15.00;11.93;;;;;;;;;;4965453;28;20612;-53
2021/01/26 02:32:39;;;;;;;12.83;10.50;;;;;;;;;;4961692;28;21003;-53
2021/01/26 02:35:14;;;;;;;15.10;11.33;;;;;;;;;;4961073;28;20606;-54
2021/01/26 02:38:07;;;;;;;15.48;13.93;;;;;;;;;;4960364;28;25022;-53
2021/01/26 02:40:32;;;;;;;14.37;12.97;;;;;;;;;;4965103;28;20199;-53
2021/01/26 02:43:12;;;;;;;16.17;12.60;;;;;;;;;;4968564;28;20623;-54
2021/01/26 02:45:41;;;;;;;15.50;13.80;;;;;;;;;;4964784;28;20171;-52
2021/01/26 02:48:29;;;;;;;14.70;13.10;;;;;;;;;;4956231;28;20607;-53
2021/01/26 02:54:12;;;;;;;15.93;13.10;;;;;;;;;;4961010;28;20590;-54
2021/01/26 02:56:37;;;;;;;15.57;12.60;;;;;;;;;;4969121;28;20600;-53
2021/01/26 02:59:21;;;;;;;15.15;12.60;;;;;;;;;;4951480;28;20606;-53
2021/01/26 03:01:49;;;;;;;18.83;13.60;;;;;;;;;;4963487;28;20180;-53
2021/01/26 03:04:21;;;;;;;13.00;11.70;;;;;;;;;;4962119;28;20647;-53
2021/01/26 03:06:48;;;;;;;14.50;12.70;;;;;;;;;;4969314;28;20694;-54
2021/01/26 03:09:21;;;;;;;15.00;12.07;;;;;;;;;;4951171;28;20595;-53
2021/01/26 03:12:04;;;;;;;14.97;12.20;;;;;;;;;;4965094;28;20595;-54
2021/01/26 03:14:40;;;;;;;15.13;11.70;;;;;;;;;;4959953;28;20653;-53
2021/01/26 03:17:14;;;;;;;14.87;13.37;;;;;;;;;;4957327;28;20603;-53
2021/01/26 03:19:42;;;;;;;16.53;12.67;;;;;;;;;;4968852;28;20587;-53
2021/01/26 03:22:08;;;;;;;14.43;12.93;;;;;;;;;;4964823;28;20658;-54
2021/01/26 03:24:35;;;;;;;15.50;13.27;;;;;;;;;;4968744;28;21015;-53
2021/01/26 03:27:04;;;;;;;14.00;12.53;;;;;;;;;;4963925;28;20180;-53
2021/01/26 03:29:30;;;;;;;16.07;12.90;;;;;;;;;;4968834;28;20590;-53
2021/01/26 03:31:57;;;;;;;12.90;11.60;;;;;;;;;;4967881;28;21140;-53
2021/01/26 03:34:23;;;;;;;13.53;12.13;;;;;;;;;;4968844;28;20223;-54
2021/01/26 03:36:48;;;;;;;14.70;11.90;;;;;;;;;;4966650;28;20649;-54
2021/01/26 03:39:14;;;;;;;14.73;13.20;;;;;;;;;;4968213;28;20171;-54
2021/01/26 03:41:39;;;;;;;16.23;12.23;;;;;;;;;;4965180;28;20179;-54
2021/01/26 03:44:05;;;;;;;15.07;12.90;;;;;;;;;;4968607;28;20212;-54
2021/01/26 03:46:42;;;;;;;15.13;13.53;;;;;;;;;;4963080;28;20176;-54
2021/01/26 03:49:23;;;;;;;14.97;13.37;;;;;;;;;;4971663;28;20604;-54
2021/01/26 03:52:06;;;;;;;14.73;13.20;;;;;;;;;;4954939;28;20603;-53
2021/01/26 03:54:31;;;;;;;15.30;13.50;;;;;;;;;;4968294;28;20604;-54
2021/01/26 03:57:13;;;;;;;14.75;13.25;;;;;;;;;;4967101;28;20612;-54
2021/01/26 03:59:58;;;;;;;15.47;13.87;;;;;;;;;;4969321;28;20204;-54
2021/01/26 04:02:41;;;;;;;17.00;13.63;;;;;;;;;;4956678;28;21095;-55
2021/01/26 04:05:30;;;;;;;15.83;13.50;;;;;;;;;;4971508;28;20660;-54
2021/01/26 04:07:58;;;;;;;14.37;12.30;;;;;;;;;;4966523;28;20655;-54
2021/01/26 04:10:26;;;;;;;17.60;12.83;;;;;;;;;;4966463;28;20603;-54
2021/01/26 04:12:55;;;;;;;14.23;12.73;;;;;;;;;;4971503;28;20627;-54
2021/01/26 04:15:33;;;;;;;13.33;11.90;;;;;;;;;;4971515;28;21634;-54
2021/01/26 04:17:58;;;;;;;14.00;11.77;;;;;;;;;;4967229;28;20668;-54
2021/01/26 04:20:27;;;;;;;12.90;11.60;;;;;;;;;;4970710;28;20619;-54
2021/01/26 04:22:56;;;;;;;13.40;11.23;;;;;;;;;;4970986;28;20664;-54
2021/01/26 04:25:27;;;;;;;12.20;10.87;;;;;;;;;;4971174;28;20594;-54
2021/01/26 04:27:52;;;;;;;12.83;11.20;;;;;;;;;;4970096;28;20595;-54
2021/01/26 04:30:18;;;;;;;11.57;10.00;;;;;;;;;;4970715;28;21167;-55
2021/01/26 04:32:43;;;;;;;12.20;10.97;;;;;;;;;;4971248;28;20182;-54
2021/01/26 04:35:08;;;;;;;13.85;10.88;;;;;;;;;;4967878;28;20250;-54
2021/01/26 04:37:33;;;;;;;11.47;10.43;;;;;;;;;;4970910;28;20237;-54
2021/01/26 04:39:58;;;;;;;14.15;10.05;;;;;;;;;;4969943;28;20230;-54
2021/01/26 04:42:26;;;;;;;10.35;9.32;;;;;;;;;;4971828;28;20258;-54
2021/01/26 04:45:09;;;;;;;10.63;9.27;;;;;;;;;;4969787;28;20202;-54
2021/01/26 04:47:42;;;;;;;11.90;9.53;;;;;;;;;;4961333;28;21163;-54
2021/01/26 04:50:18;;;;;;;10.70;9.70;;;;;;;;;;4960255;28;21169;-53
2021/01/26 04:53:06;;;;;;;9.90;8.90;;;;;;;;;;4963609;28;21026;-53
2021/01/26 04:55:46;;;;;;;12.97;9.40;;;;;;;;;;4966120;28;20609;-54
2021/01/26 04:58:20;;;;;;;14.83;10.20;;;;;;;;;;4960747;28;20636;-54
2021/01/26 05:00:45;;;;;;;9.53;8.70;;;;;;;;;;4966748;28;21004;-54
2021/01/26 05:03:30;;;;;;;10.85;9.75;;;;;;;;;;4966911;28;20993;-54
2021/01/26 05:05:58;;;;;;;13.37;9.40;;;;;;;;;;4967462;28;20269;-53
2021/01/26 05:08:25;;;;;;;10.23;8.10;;;;;;;;;;4970520;28;20611;-53
2021/01/26 05:10:57;;;;;;;10.00;9.00;;;;;;;;;;4970299;28;20896;-53
2021/01/26 05:13:23;;;;;;;10.03;8.80;;;;;;;;;;4960903;28;20643;-52
2021/01/26 05:16:00;;;;;;;9.27;8.47;;;;;;;;;;4962861;28;20646;-53
2021/01/26 05:18:31;;;;;;;10.47;8.67;;;;;;;;;;4956880;28;20637;-53
2021/01/26 05:20:59;;;;;;;8.90;8.07;;;;;;;;;;4970814;28;21060;-52
2021/01/26 05:23:32;;;;;;;11.67;8.90;;;;;;;;;;4963325;28;20726;-52
2021/01/26 05:25:57;;;;;;;9.97;8.90;;;;;;;;;;4958985;28;20607;-52
2021/01/26 05:28:22;;;;;;;10.53;9.33;;;;;;;;;;4965297;28;20598;-52
2021/01/26 05:31:05;;;;;;;9.95;9.05;;;;;;;;;;4961892;28;20180;-52
2021/01/26 05:33:30;;;;;;;10.03;9.10;;;;;;;;;;4968837;28;20174;-53
2021/01/26 05:35:57;;;;;;;9.90;8.87;;;;;;;;;;4960483;28;21260;-52
2021/01/26 05:38:22;;;;;;;10.47;9.37;;;;;;;;;;4962123;28;20179;-53
2021/01/26 05:40:55;;;;;;;11.00;9.90;;;;;;;;;;4970341;28;20618;-52
2021/01/26 05:43:23;;;;;;;13.10;8.73;;;;;;;;;;4967832;28;20708;-52
2021/01/26 05:45:52;;;;;;;12.53;9.13;;;;;;;;;;4968982;28;20951;-53
2021/01/26 05:48:18;;;;;;;12.50;8.97;;;;;;;;;;4969186;28;20594;-53
2021/01/26 05:50:44;;;;;;;11.73;10.33;;;;;;;;;;4970042;28;21180;-53
2021/01/26 05:53:13;;;;;;;13.33;10.67;;;;;;;;;;4970194;28;20635;-53
2021/01/26 05:55:38;;;;;;;13.73;9.50;;;;;;;;;;4970152;28;20574;-54
2021/01/26 05:58:07;;;;;;;11.90;9.63;;;;;;;;;;4961676;28;21220;-53
2021/01/26 06:00:33;;;;;;;9.80;9.00;;;;;;;;;;4968252;28;20203;-53
2021/01/26 06:03:04;;;;;;;9.93;8.73;;;;;;;;;;4961740;28;20621;-54
2021/01/26 06:05:29;;;;;;;10.83;9.63;;;;;;;;;;4963240;28;20809;-53
2021/01/26 06:08:11;;;;;;;10.00;9.00;;;;;;;;;;4964824;28;20945;-53
2021/01/26 06:10:38;;;;;;;12.50;11.30;;;;;;;;;;4961122;28;24417;-53
2021/01/26 06:13:04;;;;;;;10.40;9.30;;;;;;;;;;4969995;28;20203;-54
2021/01/26 06:15:30;;;;;;;11.30;10.10;;;;;;;;;;4964354;28;20657;-53
2021/01/26 06:18:07;;;;;;;11.30;9.83;;;;;;;;;;4964233;28;20174;-53
2021/01/26 06:20:35;;;;;;;11.00;9.37;;;;;;;;;;4963707;28;20609;-53
2021/01/26 06:23:10;;;;;;;9.73;8.13;;;;;;;;;;4973016;28;20929;-54
2021/01/26 06:25:36;;;;;;;9.00;7.80;;;;;;;;;;4967723;28;20617;-52
2021/01/26 06:28:24;;;;;;;8.90;7.97;;;;;;;;;;4965961;28;20653;-53
2021/01/26 06:31:18;;;;;;;11.70;8.77;;;;;;;;;;4965333;28;21171;-54
2021/01/26 06:33:46;;;;;;;11.33;9.03;;;;;;;;;;4912491;28;21300;-54
2021/01/26 06:36:27;;;;;;;11.30;9.17;;;;;;;;;;4956435;28;20615;-53
2021/01/26 06:39:06;;;;;;;10.33;9.27;;;;;;;;;;4966270;28;20606;-54
2021/01/26 06:41:31;;;;;;;9.70;8.73;;;;;;;;;;4966817;28;20605;-54
2021/01/26 06:44:15;;;;;;;10.07;9.05;;;;;;;;;;4966193;28;20689;-54
2021/01/26 06:46:51;;;;;;;10.00;7.80;;;;;;;;;;4963104;28;20548;-54
2021/01/26 06:49:34;;;;;;;10.40;9.40;;;;;;;;;;4967074;28;20668;-54
2021/01/26 06:52:04;;;;;;;9.20;8.30;;;;;;;;;;4966774;28;20683;-54
2021/01/26 06:54:35;;;;;;;10.30;8.53;;;;;;;;;;4960714;28;20663;-53
2021/01/26 06:57:09;;;;;;;11.77;8.37;;;;;;;;;;4966391;28;20623;-53
2021/01/26 06:59:53;;;;;;;9.07;8.17;;;;;;;;;;4963790;28;20646;-54
2021/01/26 07:02:43;;;;;;;8.33;7.60;;;;;;;;;;4960839;28;20607;-54
2021/01/26 07:05:26;;;;;;;8.90;8.00;;;;;;;;;;4966256;28;21246;-54
2021/01/26 07:07:52;;;;;;;10.37;8.30;;;;;;;;;;4970071;28;20614;-54
2021/01/26 07:10:23;;;;;;;8.30;7.55;;;;;;;;;;4965966;28;20626;-53
2021/01/26 07:13:06;;;;;;;11.27;8.30;;;;;;;;;;4965398;28;20232;-54
2021/01/26 07:15:32;;;;;;;7.90;7.30;;;;;;;;;;4964965;28;20663;-54
2021/01/26 07:18:13;;;;;;;11.07;7.93;;;;;;;;;;4962831;28;20683;-54
2021/01/26 07:20:57;;;;;;;8.03;7.33;;;;;;;;;;4967145;28;20677;-54
2021/01/26 07:23:36;;;;;;;8.10;7.30;;;;;;;;;;4958458;28;21213;-53
2021/01/26 07:26:01;;;;;;;8.23;7.53;;;;;;;;;;4968158;28;21000;-54
2021/01/26 07:28:29;;;;;;;8.25;7.55;;;;;;;;;;4965244;28;20600;-54
2021/01/26 07:31:01;;;;;;;10.87;6.87;;;;;;;;;;4960584;28;20180;-54
2021/01/26 07:33:34;;;;;;;8.40;7.70;;;;;;;;;;4961026;28;20614;-54
2021/01/26 07:36:11;;;;;;;8.60;7.77;;;;;;;;;;4967654;28;20607;-53
2021/01/26 07:38:43;;;;;;;10.40;7.90;;;;;;;;;;4967513;28;20629;-53
2021/01/26 07:41:14;;;;;;;7.97;7.23;;;;;;;;;;4968138;28;20612;-53
2021/01/26 07:43:45;;;;;;;8.77;7.90;;;;;;;;;;4966594;28;20639;-54
2021/01/26 07:46:30;;;;;;;9.83;7.33;;;;;;;;;;4967097;28;20586;-53
2021/01/26 07:49:10;;;;;;;10.20;7.30;;;;;;;;;;4967946;28;21439;-54
2021/01/26 07:51:38;;;;;;;7.33;6.73;;;;;;;;;;4966676;28;20823;-53
2021/01/26 07:54:06;;;;;;;9.20;7.70;;;;;;;;;;4955899;28;20608;-52
2021/01/26 07:56:33;;;;;;;9.00;6.70;;;;;;;;;;4949144;29;20591;-53
2021/01/26 07:59:00;;;;;;;8.70;7.80;;;;;;;;;;4959436;28;21187;-53
2021/01/26 08:01:28;;;;;;;9.10;8.20;;;;;;;;;;4965922;28;20599;-53
2021/01/26 08:03:53;;;;;;;8.30;7.60;;;;;;;;;;4967221;28;20998;-53
2021/01/26 08:06:42;;;;;;;7.97;7.37;;;;;;;;;;4966335;28;20605;-54
2021/01/26 08:09:11;;;;;;;10.93;8.17;;;;;;;;;;4962283;28;20177;-54
2021/01/26 08:11:48;;;;;;;9.23;8.33;;;;;;;;;;4967265;28;20602;-53
2021/01/26 08:14:13;;;;;;;9.10;8.30;;;;;;;;;;4958146;28;20643;-54
2021/01/26 08:16:52;;;;;;;10.33;8.63;;;;;;;;;;4965974;28;20607;-53
2021/01/26 08:19:35;;;;;;;10.50;9.40;;;;;;;;;;4966177;28;20176;-53
2021/01/26 08:22:13;;;;;;;10.37;9.30;;;;;;;;;;4962361;28;21161;-53
2021/01/26 08:24:39;;;;;;;9.60;8.60;;;;;;;;;;4956491;28;20713;-53
2021/01/26 08:27:23;;;;;;;9.47;8.57;;;;;;;;;;4957968;28;20681;-53
2021/01/26 08:29:48;;;;;;;10.07;9.07;;;;;;;;;;4968200;28;20599;-53
2021/01/26 08:32:23;;;;;;;8.75;8.05;;;;;;;;;;4967447;28;20639;-53
2021/01/26 08:34:57;;;;;;;9.83;8.30;;;;;;;;;;4971675;28;20188;-54
2021/01/26 08:37:24;;;;;;;10.43;8.57;;;;;;;;;;4968379;28;20629;-53
2021/01/26 08:39:50;;;;;;;8.53;7.83;;;;;;;;;;4969533;28;20611;-54
2021/01/26 08:42:34;;;;;;;9.57;8.60;;;;;;;;;;4971088;28;20637;-54
2021/01/26 08:44:59;;;;;;;16.03;10.23;;;;;;;;;;4969842;28;21217;-53
2021/01/26 08:47:43;;;;;;;9.45;8.07;;;;;;;;;;4966966;28;21029;-54
2021/01/26 08:50:10;;;;;;;11.80;9.23;;;;;;;;;;4970782;28;20179;-53
2021/01/26 08:52:35;;;;;;;10.43;9.37;;;;;;;;;;4969639;28;21110;-54
2021/01/26 08:55:00;;;;;;;10.80;9.55;;;;;;;;;;4970233;28;20643;-53
2021/01/26 08:57:28;;;;;;;8.93;7.50;;;;;;;;;;4970073;28;20181;-53
2021/01/26 08:59:57;;;;;;;9.30;8.50;;;;;;;;;;4969116;28;20191;-53
2021/01/26 09:02:33;;;;;;;9.60;8.70;;;;;;;;;;4975537;28;20603;-53
2021/01/26 09:04:59;;;;;;;15.87;10.23;;;;;;;;;;4969716;28;20673;-54
2021/01/26 09:07:42;;;;;;;10.80;9.50;;;;;;;;;;4967418;28;20606;-55
2021/01/26 09:10:19;;;;;;;10.03;8.80;;;;;;;;;;4958334;28;20194;-55
2021/01/26 09:12:45;;;;;;;10.07;9.07;;;;;;;;;;4970217;28;20629;-55
2021/01/26 09:15:10;;;;;;;11.73;9.80;;;;;;;;;;4969894;28;20805;-54
2021/01/26 09:17:36;;;;;;;10.13;9.10;;;;;;;;;;4969850;28;20968;-54
2021/01/26 09:20:06;;;;;;;10.87;9.77;;;;;;;;;;4969598;28;20551;-55
2021/01/26 09:22:32;;;;;;;10.23;9.33;;;;;;;;;;4970130;28;20172;-54
2021/01/26 09:25:12;;;;;;;11.27;9.13;;;;;;;;;;4970270;28;20662;-54
2021/01/26 09:27:38;;;;;;;10.30;9.30;;;;;;;;;;4969010;28;20963;-54
2021/01/26 09:30:09;;;;;;;10.70;9.37;;;;;;;;;;4969545;28;20731;-54
2021/01/26 09:32:35;;;;;;;13.43;10.40;;;;;;;;;;4962601;28;20620;-54
2021/01/26 09:35:07;;;;;;;9.93;9.03;;;;;;;;;;4969465;28;20732;-54
2021/01/26 09:37:34;;;;;;;10.07;9.07;;;;;;;;;;4965267;28;20616;-54
2021/01/26 09:40:06;;;;;;;12.87;9.80;;;;;;;;;;4969493;28;20708;-53
2021/01/26 09:42:32;;;;;;;11.73;9.37;;;;;;;;;;4966269;28;20613;-54
2021/01/26 09:44:58;;;;;;;11.17;10.13;;;;;;;;;;4969346;28;20796;-54
2021/01/26 09:47:24;;;;;;;12.17;10.40;;;;;;;;;;4984175;28;20254;-53
2021/01/26 09:49:50;;;;;;;9.80;8.90;;;;;;;;;;4969846;28;20569;-54
2021/01/26 09:52:16;;;;;;;11.80;10.60;;;;;;;;;;4969641;28;21107;-53
2021/01/26 09:54:42;;;;;;;11.53;8.60;;;;;;;;;;4969830;28;20190;-54
2021/01/26 09:57:10;;;;;;;10.60;9.60;;;;;;;;;;4968259;28;20659;-54
2021/01/26 09:59:36;;;;;;;11.90;10.70;;;;;;;;;;4969842;28;20229;-54
2021/01/26 10:02:04;;;;;;;12.10;10.80;;;;;;;;;;4968686;28;20679;-54
2021/01/26 10:04:32;;;;;;;11.00;9.87;;;;;;;;;;4969523;28;20717;-54
2021/01/26 10:06:58;;;;;;;11.60;9.90;;;;;;;;;;4967379;28;21061;-54
2021/01/26 10:09:27;;;;;;;10.47;9.47;;;;;;;;;;4950334;29;20581;-54
2021/01/26 10:11:53;;;;;;;11.40;10.20;;;;;;;;;;4949897;29;20183;-53
2021/01/26 10:14:23;;;;;;;11.60;10.40;;;;;;;;;;4949968;29;20617;-53
2021/01/26 10:16:50;;;;;;;11.97;10.07;;;;;;;;;;4958560;28;20623;-53
2021/01/26 10:19:26;;;;;;;11.60;9.37;;;;;;;;;;4969888;28;21216;-53
2021/01/26 10:21:52;;;;;;;11.10;10.00;;;;;;;;;;4969494;28;21157;-53
2021/01/26 10:24:28;;;;;;;11.17;10.17;;;;;;;;;;4969587;28;20651;-53
2021/01/26 10:27:23;;;;;;;11.60;10.03;;;;;;;;;;4956315;28;20691;-54
2021/01/26 10:29:48;;;;;;;10.53;9.53;;;;;;;;;;4960557;28;20622;-55
2021/01/26 10:32:33;;;;;;;11.70;9.43;;;;;;;;;;4957653;28;20602;-55
2021/01/26 10:34:59;;;;;;;11.77;10.67;;;;;;;;;;4951108;28;20274;-54
2021/01/26 10:37:24;;;;;;;12.73;10.33;;;;;;;;;;4969365;28;20694;-55
2021/01/26 10:40:08;;;;;;;11.40;10.23;;;;;;;;;;4952354;28;20194;-54
2021/01/26 10:42:33;;;;;;;13.00;11.80;;;;;;;;;;4962833;28;20185;-54
2021/01/26 10:44:59;;;;;;;12.83;11.63;;;;;;;;;;4968766;28;20667;-53
2021/01/26 10:47:27;;;;;;;12.50;11.40;;;;;;;;;;4962814;28;20185;-54
2021/01/26 10:49:56;;;;;;;12.53;11.23;;;;;;;;;;4969580;28;20185;-54
2021/01/26 10:52:41;;;;;;;12.70;11.50;;;;;;;;;;4967331;28;21193;-55
2021/01/26 10:55:07;;;;;;;13.47;12.17;;;;;;;;;;4968825;28;21202;-55
2021/01/26 10:57:32;;;;;;;13.33;11.93;;;;;;;;;;4973074;28;20624;-54
2021/01/26 10:59:57;;;;;;;13.20;11.82;;;;;;;;;;4968912;28;21171;-53
2021/01/26 11:02:23;;;;;;;13.75;12.45;;;;;;;;;;4969185;28;20188;-53
2021/01/26 11:04:48;;;;;;;12.70;11.63;;;;;;;;;;4968219;28;20209;-55
2021/01/26 11:07:13;;;;;;;13.33;11.60;;;;;;;;;;4964744;28;20177;-53
2021/01/26 11:09:38;;;;;;;16.75;13.38;;;;;;;;;;4968352;28;20181;-53
2021/01/26 11:12:04;;;;;;;14.25;12.75;;;;;;;;;;4968357;28;20186;-53
2021/01/26 11:14:29;;;;;;;14.10;12.80;;;;;;;;;;4959408;28;20210;-53
2021/01/26 11:16:54;;;;;;;12.80;11.60;;;;;;;;;;4965232;28;20185;-54
2021/01/26 11:19:21;;;;;;;15.43;12.60;;;;;;;;;;4967117;28;20184;-53
2021/01/26 11:21:46;;;;;;;15.27;13.50;;;;;;;;;;4964202;28;20256;-53
2021/01/26 11:24:11;;;;;;;14.20;12.70;;;;;;;;;;4968506;28;20660;-53
2021/01/26 11:26:37;;;;;;;13.95;12.60;;;;;;;;;;4968685;28;20537;-53
2021/01/26 11:29:02;;;;;;;14.87;13.27;;;;;;;;;;4968437;28;20184;-53
2021/01/26 11:31:28;;;;;;;14.73;12.20;;;;;;;;;;4967936;28;20173;-53
2021/01/26 11:33:53;;;;;;;14.20;12.40;;;;;;;;;;4968218;28;20230;-54
2021/01/26 11:36:18;;;;;;;13.80;12.40;;;;;;;;;;4967261;28;20231;-54
2021/01/26 11:38:43;;;;;;;15.23;13.60;;;;;;;;;;4961948;28;20677;-54
2021/01/26 11:41:09;;;;;;;18.45;14.07;;;;;;;;;;4961771;28;20185;-53
2021/01/26 11:43:34;;;;;;;14.90;13.40;;;;;;;;;;4968820;28;20565;-54
2021/01/26 11:46:00;;;;;;;16.23;14.53;;;;;;;;;;4984053;28;20664;-54
2021/01/26 11:48:25;;;;;;;16.77;15.00;;;;;;;;;;4983048;28;20458;-54
2021/01/26 11:50:51;;;;;;;16.70;15.10;;;;;;;;;;4963850;28;20195;-54
2021/01/26 11:53:17;;;;;;;17.63;15.93;;;;;;;;;;4961222;28;20185;-54
2021/01/26 11:55:42;;;;;;;16.37;14.73;;;;;;;;;;4968264;28;20272;-53
2021/01/26 11:58:08;;;;;;;17.40;15.60;;;;;;;;;;4968663;28;21031;-53
2021/01/26 12:00:34;;;;;;;17.40;15.60;;;;;;;;;;4965197;28;20169;-53
2021/01/26 12:03:00;;;;;;;20.00;17.60;;;;;;;;;;4959160;28;20608;-53
2021/01/26 12:05:26;;;;;;;16.30;14.80;;;;;;;;;;4960580;28;20628;-53
2021/01/26 12:07:51;;;;;;;16.50;14.80;;;;;;;;;;4960077;28;20754;-53
2021/01/26 12:10:17;;;;;;;15.98;14.45;;;;;;;;;;4972101;28;20783;-54
2021/01/26 12:12:42;;;;;;;15.33;13.73;;;;;;;;;;4968654;28;20273;-53
2021/01/26 12:15:12;;;;;;;14.93;13.37;;;;;;;;;;4970918;28;20225;-53
2021/01/26 12:17:37;;;;;;;15.03;13.53;;;;;;;;;;4963335;28;20182;-52
2021/01/26 12:20:03;;;;;;;15.87;14.27;;;;;;;;;;4969489;28;20608;-52
2021/01/26 12:22:28;;;;;;;14.83;13.27;;;;;;;;;;4955682;28;20446;-53
2021/01/26 12:24:53;;;;;;;14.57;13.03;;;;;;;;;;4963978;28;20753;-53
2021/01/26 12:27:18;;;;;;;19.00;14.45;;;;;;;;;;4972501;28;20182;-53
2021/01/26 12:29:43;;;;;;;16.67;14.82;;;;;;;;;;4972005;28;20624;-53
2021/01/26 12:32:10;;;;;;;15.77;14.17;;;;;;;;;;4966703;28;20187;-53
2021/01/26 12:34:35;;;;;;;17.27;15.47;;;;;;;;;;4971986;28;20255;-54
2021/01/26 12:37:01;;;;;;;18.42;15.48;;;;;;;;;;4964394;28;20746;-53
2021/01/26 12:39:26;;;;;;;16.87;15.17;;;;;;;;;;4972090;28;20181;-53
2021/01/26 12:41:51;;;;;;;16.67;14.40;;;;;;;;;;4971813;28;20468;-53
2021/01/26 12:44:18;;;;;;;18.98;16.10;;;;;;;;;;4971510;28;20236;-54
2021/01/26 12:46:43;;;;;;;16.80;15.10;;;;;;;;;;4971091;28;20669;-57
2021/01/26 12:49:09;;;;;;;17.60;15.77;;;;;;;;;;4971603;28;20689;-54
2021/01/26 12:51:34;;;;;;;16.80;15.10;;;;;;;;;;4971455;28;20173;-54
2021/01/26 12:54:00;;;;;;;17.00;15.15;;;;;;;;;;4971567;28;20903;-53
2021/01/26 12:56:25;;;;;;;18.37;14.50;;;;;;;;;;4970010;28;20398;-53
2021/01/26 12:58:50;;;;;;;16.45;14.75;;;;;;;;;;4969210;28;20420;-54
2021/01/26 13:01:15;;;;;;;16.23;14.53;;;;;;;;;;4952541;29;20201;-57
2021/01/26 13:03:40;;;;;;;15.93;14.40;;;;;;;;;;4966811;28;20675;-54
2021/01/26 13:06:05;;;;;;;16.02;14.32;;;;;;;;;;4971457;28;20212;-54
2021/01/26 13:08:31;;;;;;;16.20;14.50;;;;;;;;;;4969607;28;20191;-54
2021/01/26 13:10:56;;;;;;;15.57;14.10;;;;;;;;;;4971313;28;20182;-55
2021/01/26 13:13:21;;;;;;;15.70;14.00;;;;;;;;;;4971283;28;20555;-54
2021/01/26 13:15:46;;;;;;;16.73;14.63;;;;;;;;;;4971126;28;20218;-54
2021/01/26 13:18:11;;;;;;;16.43;14.10;;;;;;;;;;4956183;28;20557;-54
2021/01/26 13:20:38;;;;;;;15.93;14.40;;;;;;;;;;4960581;28;20176;-54
2021/01/26 13:23:04;;;;;;;16.07;14.57;;;;;;;;;;4971000;28;20198;-54
2021/01/26 13:25:29;;;;;;;18.17;14.40;;;;;;;;;;4971414;28;20711;-54
2021/01/26 13:27:54;;;;;;;16.90;15.10;;;;;;;;;;4961917;28;20190;-54
2021/01/26 13:30:21;;;;;;;17.33;15.60;;;;;;;;;;4952240;29;20681;-54
2021/01/26 13:32:46;;;;;;;17.70;15.80;;;;;;;;;;4956914;28;20215;-54
2021/01/26 13:35:14;;;;;;;18.63;16.70;;;;;;;;;;4971923;28;20602;-54
2021/01/26 13:37:40;;;;;;;15.90;14.40;;;;;;;;;;4959569;28;20213;-54
2021/01/26 13:40:06;;;;;;;17.40;15.70;;;;;;;;;;4960208;28;20632;-57
2021/01/26 13:42:31;;;;;;;18.70;16.90;;;;;;;;;;4970214;28;20236;-53
2021/01/26 13:44:56;;;;;;;17.25;15.65;;;;;;;;;;4967113;28;20757;-53
2021/01/26 13:47:21;;;;;;;18.63;15.90;;;;;;;;;;4971091;28;20170;-54
2021/01/26 13:49:46;;;;;;;18.57;16.57;;;;;;;;;;4970709;28;20652;-54
2021/01/26 13:52:12;;;;;;;16.43;14.80;;;;;;;;;;4960138;28;20771;-53
2021/01/26 13:54:39;;;;;;;17.50;15.70;;;;;;;;;;4951998;28;20183;-53
2021/01/26 13:57:04;;;;;;;18.20;16.33;;;;;;;;;;4959969;28;20184;-53
2021/01/26 13:59:29;;;;;;;17.05;15.15;;;;;;;;;;4971584;28;20572;-53
2021/01/26 14:01:54;;;;;;;18.50;16.67;;;;;;;;;;4970379;28;21069;-53
2021/01/26 14:04:19;;;;;;;18.42;16.48;;;;;;;;;;4970283;28;20255;-53
2021/01/26 14:06:44;;;;;;;19.90;17.97;;;;;;;;;;4956025;28;20189;-54
2021/01/26 14:09:13;;;;;;;19.10;16.52;;;;;;;;;;4951449;28;20244;-55
2021/01/26 14:11:38;;;;;;;18.73;16.17;;;;;;;;;;4951071;28;20536;-54
2021/01/26 14:14:03;;;;;;;19.13;17.13;;;;;;;;;;4958760;28;20619;-54
2021/01/26 14:16:28;;;;;;;19.33;15.90;;;;;;;;;;4962640;28;20210;-54
2021/01/26 14:18:54;;;;;;;19.03;17.00;;;;;;;;;;4960224;28;20177;-55
2021/01/26 14:21:19;;;;;;;21.63;17.30;;;;;;;;;;4960681;28;20694;-53
2021/01/26 14:23:44;;;;;;;21.07;18.47;;;;;;;;;;4956985;28;20228;-53
2021/01/26 14:26:10;;;;;;;18.77;16.77;;;;;;;;;;4961003;28;20186;-54
2021/01/26 14:28:35;;;;;;;17.90;15.90;;;;;;;;;;4964555;28;20690;-54
2021/01/26 14:31:01;;;;;;;18.87;16.77;;;;;;;;;;4960287;28;20624;-53
2021/01/26 14:33:26;;;;;;;17.80;15.87;;;;;;;;;;4962761;28;20195;-53
2021/01/26 14:35:51;;;;;;;19.50;17.47;;;;;;;;;;4956625;28;20196;-53
2021/01/26 14:38:16;;;;;;;17.63;15.30;;;;;;;;;;4961654;28;20191;-53